createdAt,value
2023-03-19T00:00:56.311Z,5.10
2023-03-19T00:03:27.161Z,5.13
2023-03-19T00:05:58.153Z,7.70
2023-03-19T00:08:30.087Z,7.93
2023-03-19T00:11:01.066Z,8.97
2023-03-19T00:13:31.979Z,4.83
2023-03-19T00:16:03.088Z,8.93
2023-03-19T00:18:35.486Z,7.97
2023-03-19T00:21:07.365Z,6.97
2023-03-19T00:23:38.684Z,5.23
2023-03-19T00:26:10.046Z,6.67
2023-03-19T00:28:41.495Z,6.57
2023-03-19T00:31:15.411Z,9.80
2023-03-19T00:33:46.543Z,9.10
2023-03-19T00:36:18.353Z,8.93
2023-03-19T00:38:49.552Z,3.43
2023-03-19T00:41:20.926Z,8.60
2023-03-19T00:43:55.367Z,6.37
2023-03-19T00:46:27.598Z,10.33
2023-03-19T00:48:59.065Z,7.43
2023-03-19T00:51:31.200Z,3.60
2023-03-19T00:54:02.454Z,9.63
2023-03-19T00:56:33.434Z,3.97
2023-03-19T00:59:04.528Z,11.80
2023-03-19T01:01:35.822Z,6.67
2023-03-19T01:04:07.370Z,7.20
2023-03-19T01:06:38.573Z,9.47
2023-03-19T01:09:09.742Z,6.30
2023-03-19T01:14:19.231Z,9.77
2023-03-19T01:16:50.074Z,6.87
2023-03-19T01:19:21.945Z,5.33
2023-03-19T01:21:53.457Z,6.00
2023-03-19T01:24:24.302Z,10.07
2023-03-19T01:26:55.598Z,5.37
2023-03-19T01:29:27.140Z,8.33
2023-03-19T01:31:58.422Z,8.07
2023-03-19T01:34:30.181Z,7.93
2023-03-19T01:37:01.158Z,9.37
2023-03-19T01:39:32.876Z,6.70
2023-03-19T01:42:05.595Z,10.37
2023-03-19T01:44:37.997Z,5.57
2023-03-19T01:47:14.339Z,8.60
2023-03-19T01:49:48.541Z,11.37
2023-03-19T01:52:21.387Z,10.60
2023-03-19T01:54:54.164Z,13.10
2023-03-19T01:57:25.849Z,7.30
2023-03-19T02:00:00.942Z,11.67
2023-03-19T02:02:33.667Z,5.53
2023-03-19T02:05:07.190Z,10.17
2023-03-19T02:07:39.807Z,6.33
2023-03-19T02:10:14.753Z,6.17
2023-03-19T02:12:45.415Z,4.80
2023-03-19T02:15:16.446Z,4.30
2023-03-19T02:17:48.019Z,5.27
2023-03-19T02:23:05.127Z,7.77
2023-03-19T02:25:40.330Z,4.00
2023-03-19T02:28:12.071Z,6.93
2023-03-19T02:30:43.668Z,7.17
2023-03-19T02:33:18.090Z,7.67
2023-03-19T02:35:51.692Z,6.00
2023-03-19T02:38:23.227Z,8.47
2023-03-19T02:40:57.384Z,7.80
2023-03-19T02:43:28.626Z,7.87
2023-03-19T02:46:00.127Z,9.30
2023-03-19T02:48:31.750Z,5.47
2023-03-19T02:51:02.645Z,5.67
2023-03-19T02:53:34.964Z,6.40
2023-03-19T02:56:06.141Z,4.60
2023-03-19T02:58:37.264Z,2.80
2023-03-19T03:01:08.858Z,8.50
2023-03-19T03:03:39.939Z,10.50
2023-03-19T03:06:11.105Z,5.83
2023-03-19T03:08:41.974Z,8.03
2023-03-19T03:11:13.223Z,5.83
2023-03-19T03:13:44.348Z,6.97
2023-03-19T03:16:15.743Z,8.67
2023-03-19T03:18:46.798Z,9.30
2023-03-19T03:21:20.310Z,6.80
2023-03-19T03:23:51.642Z,7.67
2023-03-19T03:26:22.645Z,6.50
2023-03-19T03:28:53.957Z,5.63
2023-03-19T03:31:25.215Z,9.27
2023-03-19T03:33:56.161Z,6.07
2023-03-19T03:36:27.735Z,5.97
2023-03-19T03:38:58.767Z,5.83
2023-03-19T03:41:30.018Z,6.90
2023-03-19T03:44:01.465Z,5.90
2023-03-19T03:46:32.457Z,7.23
2023-03-19T03:49:03.591Z,8.13
2023-03-19T03:51:34.734Z,7.77
2023-03-19T03:54:06.107Z,7.27
2023-03-19T03:56:37.488Z,8.00
2023-03-19T03:59:08.737Z,9.90
2023-03-19T04:01:40.073Z,4.60
2023-03-19T04:04:11.032Z,5.17
2023-03-19T04:06:42.204Z,7.87
2023-03-19T04:11:51.614Z,9.73
2023-03-19T04:14:22.558Z,7.20
2023-03-19T04:16:53.683Z,5.47
2023-03-19T04:19:24.592Z,8.80
2023-03-19T04:21:55.673Z,6.07
2023-03-19T04:24:26.965Z,4.93
2023-03-19T04:26:57.864Z,6.47
2023-03-19T04:29:28.888Z,4.93
2023-03-19T04:32:00.057Z,8.83
2023-03-19T04:34:31.246Z,9.50
2023-03-19T04:37:02.439Z,4.13
2023-03-19T04:39:33.607Z,7.47
2023-03-19T04:42:05.129Z,8.33
2023-03-19T04:44:36.154Z,6.67
2023-03-19T04:47:07.485Z,6.90
2023-03-19T04:49:38.359Z,7.33
2023-03-19T04:52:10.354Z,10.37
2023-03-19T04:54:41.205Z,9.60
2023-03-19T04:57:12.548Z,5.97
2023-03-19T04:59:43.656Z,10.20
2023-03-19T05:02:15.881Z,9.70
2023-03-19T05:04:46.804Z,7.57
2023-03-19T05:07:17.605Z,10.50
2023-03-19T05:09:48.702Z,8.23
2023-03-19T05:12:19.769Z,8.63
2023-03-19T05:14:50.590Z,7.70
2023-03-19T05:17:21.850Z,5.77
2023-03-19T05:19:52.912Z,7.87
2023-03-19T05:22:24.704Z,5.53
2023-03-19T05:24:55.800Z,7.80
2023-03-19T05:27:27.467Z,7.00
2023-03-19T05:29:58.595Z,7.07
2023-03-19T05:32:29.534Z,5.53
2023-03-19T05:35:00.474Z,10.47
2023-03-19T05:37:32.082Z,10.93
2023-03-19T05:40:04.161Z,8.63
2023-03-19T05:42:35.570Z,11.03
2023-03-19T05:45:07.457Z,10.23
2023-03-19T05:47:39.459Z,8.67
2023-03-19T05:50:12.708Z,7.30
2023-03-19T05:52:43.746Z,7.60
2023-03-19T05:55:14.699Z,11.90
2023-03-19T05:57:45.432Z,10.67
2023-03-19T06:00:18.772Z,8.20
2023-03-19T06:02:50.053Z,11.63
2023-03-19T06:05:21.584Z,10.17
2023-03-19T06:07:52.532Z,11.70
2023-03-19T06:10:30.371Z,10.97
2023-03-19T06:13:01.760Z,8.93
2023-03-19T06:15:32.917Z,8.40
2023-03-19T06:18:04.250Z,13.90
2023-03-19T06:20:35.499Z,11.40
2023-03-19T06:23:06.751Z,10.63
2023-03-19T06:28:17.136Z,10.87
2023-03-19T06:30:48.111Z,8.40
2023-03-19T06:33:18.942Z,6.23
2023-03-19T06:35:49.867Z,10.20
2023-03-19T06:38:21.228Z,13.80
2023-03-19T06:40:52.366Z,11.33
2023-03-19T06:43:23.269Z,9.80
2023-03-19T06:45:54.349Z,13.10
2023-03-19T06:48:25.380Z,16.83
2023-03-19T06:50:56.708Z,11.80
2023-03-19T06:53:28.042Z,8.17
2023-03-19T06:58:36.588Z,10.77
2023-03-19T07:01:07.939Z,10.10
2023-03-19T07:03:38.815Z,10.87
2023-03-19T07:06:10.393Z,10.93
2023-03-19T07:08:43.231Z,11.63
2023-03-19T07:11:14.660Z,15.13
2023-03-19T07:13:45.603Z,8.03
2023-03-19T07:16:16.603Z,9.67
2023-03-19T07:18:47.778Z,8.83
2023-03-19T07:21:18.890Z,11.20
2023-03-19T07:23:50.954Z,9.53
2023-03-19T07:26:21.924Z,9.70
2023-03-19T07:28:52.969Z,11.93
2023-03-19T07:31:23.931Z,14.67
2023-03-19T07:33:54.801Z,12.80
2023-03-19T07:36:25.958Z,13.63
2023-03-19T07:38:57.548Z,12.47
2023-03-19T07:41:29.539Z,10.80
2023-03-19T07:44:00.603Z,8.17
2023-03-19T07:46:31.978Z,8.83
2023-03-19T07:49:03.085Z,8.40
2023-03-19T07:51:34.088Z,13.57
2023-03-19T07:54:05.442Z,11.70
2023-03-19T07:56:36.564Z,24.17
2023-03-19T07:59:07.517Z,13.13
2023-03-19T08:01:38.395Z,11.13
2023-03-19T08:04:09.799Z,12.30
2023-03-19T08:06:40.762Z,11.43
2023-03-19T08:09:12.205Z,12.43
2023-03-19T08:11:43.368Z,13.63
2023-03-19T08:14:14.356Z,10.57
2023-03-19T08:16:45.368Z,16.77
2023-03-19T08:19:16.969Z,17.10
2023-03-19T08:21:48.121Z,9.50
2023-03-19T08:24:19.975Z,14.23
2023-03-19T08:26:50.915Z,14.27
2023-03-19T08:29:21.881Z,10.23
2023-03-19T08:31:53.271Z,19.13
2023-03-19T08:34:24.438Z,10.60
2023-03-19T08:36:55.706Z,12.10
2023-03-19T08:39:26.775Z,11.87
2023-03-19T08:41:57.873Z,9.73
2023-03-19T08:44:28.795Z,12.20
2023-03-19T08:46:59.783Z,12.50
2023-03-19T08:49:30.947Z,12.07
2023-03-19T08:52:01.874Z,11.40
2023-03-19T08:54:32.881Z,11.90
2023-03-19T08:57:04.397Z,10.73
2023-03-19T08:59:35.657Z,12.10
2023-03-19T09:02:07.070Z,11.50
2023-03-19T09:04:39.595Z,11.57
2023-03-19T09:07:13.037Z,13.47
2023-03-19T09:09:45.040Z,17.07
2023-03-19T09:12:18.042Z,13.83
2023-03-19T09:14:49.076Z,10.10
2023-03-19T09:17:20.004Z,12.20
2023-03-19T09:19:50.972Z,7.67
2023-03-19T09:22:22.018Z,7.80
2023-03-19T09:24:52.909Z,11.13
2023-03-19T09:27:24.003Z,8.57
2023-03-19T09:29:56.652Z,13.03
2023-03-19T09:32:30.909Z,12.13
2023-03-19T09:35:02.600Z,8.67
2023-03-19T09:37:34.301Z,9.43
2023-03-19T09:40:06.060Z,12.67
2023-03-19T09:45:26.144Z,13.10
2023-03-19T09:48:00.224Z,13.77
2023-03-19T09:50:34.897Z,14.70
2023-03-19T09:53:09.379Z,14.37
2023-03-19T09:55:44.880Z,7.50
2023-03-19T09:58:19.142Z,11.50
2023-03-19T10:00:52.563Z,6.10
2023-03-19T10:03:34.855Z,6.10
2023-03-19T10:06:13.636Z,7.77
2023-03-19T10:08:57.932Z,10.50
2023-03-19T10:11:40.352Z,6.87
2023-03-19T10:16:59.953Z,8.03
2023-03-19T10:19:34.981Z,9.27
2023-03-19T10:22:09.668Z,7.67
2023-03-19T10:24:43.127Z,13.40
2023-03-19T10:27:17.565Z,7.53
2023-03-19T10:29:49.596Z,5.73
2023-03-19T10:32:23.424Z,7.87
2023-03-19T10:34:54.840Z,6.37
2023-03-19T10:37:28.093Z,6.00
2023-03-19T10:40:00.517Z,5.47
2023-03-19T10:42:48.640Z,5.45
2023-03-19T10:45:27.094Z,4.57
2023-03-19T10:47:59.574Z,5.83
2023-03-19T10:50:34.386Z,3.97
2023-03-19T10:53:09.146Z,6.10
2023-03-19T10:55:41.328Z,7.73
2023-03-19T10:58:18.084Z,5.40
2023-03-19T11:00:50.560Z,6.37
2023-03-19T11:03:33.021Z,6.87
2023-03-19T11:06:10.138Z,3.77
2023-03-19T11:08:41.276Z,4.23
2023-03-19T11:11:26.417Z,4.47
2023-03-19T11:13:58.273Z,4.07
2023-03-19T11:16:29.744Z,4.33
2023-03-19T11:19:01.034Z,6.37
2023-03-19T11:21:34.310Z,2.90
2023-03-19T11:26:46.895Z,7.13
2023-03-19T11:29:17.624Z,3.63
2023-03-19T11:31:52.724Z,4.80
2023-03-19T11:34:29.609Z,5.47
2023-03-19T11:37:05.239Z,6.47
2023-03-19T11:39:41.216Z,5.77
2023-03-19T11:45:12.195Z,5.20
2023-03-19T11:47:46.497Z,2.43
2023-03-19T11:50:23.119Z,3.30
2023-03-19T11:53:07.243Z,4.13
2023-03-19T11:55:42.421Z,3.37
2023-03-19T11:58:44.089Z,3.63
2023-03-19T12:05:24.246Z,4.20
2023-03-19T12:07:57.380Z,5.70
2023-03-19T12:10:33.847Z,4.10
2023-03-19T12:13:11.787Z,4.73
2023-03-19T12:16:05.173Z,3.93
2023-03-19T12:18:47.455Z,3.37
2023-03-19T12:21:21.976Z,3.53
2023-03-19T12:26:47.411Z,1.73
2023-03-19T12:32:10.744Z,3.57
2023-03-19T12:34:44.751Z,1.43
2023-03-19T12:37:23.278Z,3.63
2023-03-19T12:40:03.835Z,2.90
2023-03-19T12:42:37.790Z,5.23
2023-03-19T12:45:16.381Z,1.87
2023-03-19T12:47:49.207Z,1.57
2023-03-19T12:50:21.888Z,1.40
2023-03-19T12:52:56.044Z,2.33
2023-03-19T12:55:32.273Z,1.93
2023-03-19T12:58:07.408Z,1.80
2023-03-19T13:00:41.627Z,1.67
2023-03-19T13:05:57.601Z,0.73
2023-03-19T13:08:32.945Z,1.43
2023-03-19T13:11:07.091Z,2.50
2023-03-19T13:13:43.467Z,1.40
2023-03-19T13:16:23.399Z,1.57
2023-03-19T13:18:57.998Z,2.20
2023-03-19T13:21:31.809Z,1.50
2023-03-19T13:24:10.581Z,1.10
2023-03-19T13:26:42.134Z,1.27
2023-03-19T13:29:18.242Z,1.23
2023-03-19T13:31:49.843Z,1.33
2023-03-19T13:34:33.298Z,2.53
2023-03-19T13:37:08.222Z,1.50
2023-03-19T13:39:39.914Z,3.33
2023-03-19T13:42:18.413Z,1.47
2023-03-19T13:44:55.373Z,1.00
2023-03-19T13:56:41.503Z,0.70
2023-03-19T13:59:32.292Z,1.60
2023-03-19T14:02:04.135Z,1.93
2023-03-19T14:04:37.331Z,2.07
2023-03-19T14:07:15.985Z,2.75
2023-03-19T14:09:49.423Z,2.53
2023-03-19T14:12:36.103Z,1.73
2023-03-19T14:15:18.238Z,1.07
2023-03-19T14:17:57.812Z,1.13
2023-03-19T14:20:39.155Z,1.73
2023-03-19T14:23:16.442Z,1.53
2023-03-19T14:26:06.437Z,0.73
2023-03-19T14:28:58.299Z,3.67
2023-03-19T14:31:39.050Z,1.07
2023-03-19T14:34:19.121Z,3.50
2023-03-19T14:36:52.889Z,2.30
2023-03-19T14:39:42.852Z,1.83
2023-03-19T14:42:20.432Z,6.87
2023-03-19T14:45:27.480Z,3.40
2023-03-19T14:48:09.663Z,4.73
2023-03-19T14:51:42.765Z,0.80
2023-03-19T14:54:21.674Z,1.63
2023-03-19T14:56:53.133Z,1.70
2023-03-19T14:59:23.935Z,2.37
2023-03-19T15:01:55.858Z,1.17
2023-03-19T15:04:28.301Z,0.97
2023-03-19T15:07:01.925Z,1.50
2023-03-19T15:09:50.084Z,1.73
2023-03-19T15:12:28.944Z,1.33
2023-03-19T15:15:06.075Z,0.77
2023-03-19T15:17:38.781Z,3.80
2023-03-19T15:20:12.922Z,2.67
2023-03-19T15:22:42.485Z,1.47
2023-03-19T15:25:13.624Z,1.73
2023-03-19T15:27:43.396Z,2.75
2023-03-19T15:30:22.903Z,1.23
2023-03-19T15:33:08.006Z,1.87
2023-03-19T15:35:26.222Z,2.63
2023-03-19T15:38:00.148Z,0.80
2023-03-19T15:40:33.642Z,1.00
2023-03-19T15:43:04.984Z,2.30
2023-03-19T15:45:36.765Z,1.03
2023-03-19T15:48:10.512Z,2.70
2023-03-19T15:50:43.747Z,1.03
2023-03-19T15:53:17.385Z,1.47
2023-03-19T15:55:51.354Z,1.20
2023-03-19T15:58:24.880Z,0.80
2023-03-19T16:00:56.890Z,1.80
2023-03-19T16:03:32.005Z,2.07
2023-03-19T16:06:06.321Z,1.13
2023-03-19T16:08:38.764Z,0.87
2023-03-19T16:11:23.401Z,3.50
2023-03-19T16:14:00.262Z,1.60
2023-03-19T16:16:34.438Z,1.77
2023-03-19T16:19:05.466Z,1.50
2023-03-19T16:21:39.563Z,7.62
2023-03-19T16:24:18.511Z,0.80
2023-03-19T16:26:50.963Z,5.30
2023-03-19T16:29:24.825Z,4.07
2023-03-19T16:32:01.773Z,1.20
2023-03-19T16:34:45.549Z,1.50
2023-03-19T16:37:35.367Z,2.93
2023-03-19T16:40:20.737Z,3.90
2023-03-19T16:42:52.873Z,3.37
2023-03-19T16:45:28.128Z,3.73
2023-03-19T16:48:02.511Z,2.97
2023-03-19T16:50:36.951Z,2.50
2023-03-19T16:53:10.051Z,3.23
2023-03-19T16:55:42.290Z,2.03
2023-03-19T17:00:55.229Z,2.37
2023-03-19T17:03:26.800Z,2.67
2023-03-19T17:05:58.233Z,1.90
2023-03-19T17:08:29.458Z,2.17
2023-03-19T17:11:02.329Z,2.95
2023-03-19T17:13:36.003Z,2.00
2023-03-19T17:16:09.219Z,2.77
2023-03-19T17:18:46.523Z,3.13
2023-03-19T17:21:21.088Z,2.60
2023-03-19T17:23:52.396Z,3.10
2023-03-19T17:26:26.166Z,2.23
2023-03-19T17:28:58.824Z,2.07
2023-03-19T17:31:32.428Z,1.90
2023-03-19T17:34:06.517Z,2.33
2023-03-19T17:36:37.555Z,1.60
2023-03-19T17:39:10.683Z,1.87
2023-03-19T17:41:41.644Z,2.73
2023-03-19T17:44:13.605Z,3.73
2023-03-19T17:46:46.879Z,4.07
2023-03-19T17:49:21.829Z,5.10
2023-03-19T17:51:53.657Z,3.00
2023-03-19T17:54:26.496Z,2.87
2023-03-19T17:56:57.803Z,2.83
2023-03-19T17:59:29.062Z,2.00
2023-03-19T18:02:00.532Z,2.20
2023-03-19T18:04:31.820Z,2.53
2023-03-19T18:07:03.081Z,3.47
2023-03-19T18:09:34.284Z,2.80
2023-03-19T18:12:05.579Z,5.13
2023-03-19T18:14:36.645Z,5.00
2023-03-19T18:17:08.697Z,2.50
2023-03-19T18:19:40.458Z,2.63
2023-03-19T18:22:16.886Z,1.73
2023-03-19T18:24:48.084Z,1.93
2023-03-19T18:27:19.259Z,2.80
2023-03-19T18:29:50.533Z,2.70
2023-03-19T18:35:01.555Z,3.10
2023-03-19T18:37:36.244Z,3.97
2023-03-19T18:40:12.863Z,4.33
2023-03-19T18:42:44.545Z,2.90
2023-03-19T18:45:17.563Z,4.50
2023-03-19T18:47:50.932Z,3.33
2023-03-19T18:50:23.854Z,6.33
2023-03-19T18:52:55.546Z,4.10
2023-03-19T18:55:30.162Z,2.53
2023-03-19T18:58:04.945Z,2.90
2023-03-19T19:00:38.191Z,3.70
2023-03-19T19:03:13.981Z,2.77
2023-03-19T19:05:45.230Z,4.17
2023-03-19T19:08:20.441Z,5.07
2023-03-19T19:10:55.414Z,4.20
2023-03-19T19:13:30.136Z,7.20
2023-03-19T19:16:21.816Z,3.17
2023-03-19T19:18:54.005Z,1.87
2023-03-19T19:24:03.915Z,1.43
2023-03-19T19:26:37.963Z,2.57
2023-03-19T19:29:07.851Z,1.10
2023-03-19T19:31:40.588Z,1.57
2023-03-19T19:34:14.560Z,0.73
2023-03-19T19:36:46.810Z,0.83
2023-03-19T19:39:19.128Z,1.33
2023-03-19T19:41:51.840Z,0.87
2023-03-19T19:44:24.906Z,1.50
2023-03-19T19:46:56.125Z,0.60
2023-03-19T19:49:28.719Z,2.20
2023-03-19T19:51:59.685Z,3.90
2023-03-19T19:54:31.464Z,2.40
2023-03-19T19:57:04.033Z,2.70
2023-03-19T19:59:36.055Z,1.97
2023-03-19T20:02:14.369Z,2.33
2023-03-19T20:04:46.022Z,3.67
2023-03-19T20:07:18.528Z,4.73
2023-03-19T20:09:51.019Z,2.10
2023-03-19T20:12:24.249Z,2.63
2023-03-19T20:14:56.215Z,3.90
2023-03-19T20:17:28.095Z,2.20
2023-03-19T20:19:59.607Z,2.57
2023-03-19T20:22:32.214Z,3.70
2023-03-19T20:25:05.669Z,3.10
2023-03-19T20:27:37.985Z,2.57
2023-03-19T20:30:15.557Z,2.43
2023-03-19T20:32:46.847Z,4.13
2023-03-19T20:35:23.457Z,2.73
2023-03-19T20:37:56.113Z,5.00
2023-03-19T20:40:30.145Z,3.40
2023-03-19T20:43:02.889Z,5.43
2023-03-19T20:45:38.312Z,5.17
2023-03-19T20:48:16.888Z,4.40
2023-03-19T20:50:48.465Z,6.30
2023-03-19T20:53:19.732Z,6.60
2023-03-19T20:55:51.337Z,3.23
2023-03-19T20:58:27.685Z,3.50
2023-03-19T21:01:00.352Z,3.67
2023-03-19T21:03:33.196Z,4.60
2023-03-19T21:06:06.867Z,3.17
2023-03-19T21:11:19.380Z,2.70
2023-03-19T21:13:52.018Z,3.93
2023-03-19T21:16:24.076Z,4.33
2023-03-19T21:18:55.191Z,3.33
2023-03-19T21:24:08.433Z,3.13
2023-03-19T21:26:40.748Z,2.97
2023-03-19T21:29:16.205Z,3.00
2023-03-19T21:31:48.154Z,3.40
2023-03-19T21:34:19.304Z,2.37
2023-03-19T21:36:50.253Z,4.70
2023-03-19T21:39:21.230Z,4.30
2023-03-19T21:41:52.240Z,3.30
2023-03-19T21:44:27.246Z,4.63
2023-03-19T21:46:58.222Z,2.83
2023-03-19T21:49:30.469Z,3.77
2023-03-19T21:52:01.416Z,3.10
2023-03-19T21:54:32.296Z,0.90
2023-03-19T21:57:03.401Z,3.03
2023-03-19T21:59:34.846Z,0.60
2023-03-19T22:02:10.958Z,1.77
2023-03-19T22:04:41.841Z,0.83
2023-03-19T22:07:13.063Z,1.63
2023-03-19T22:09:43.963Z,1.50
2023-03-19T22:12:18.259Z,1.47
2023-03-19T22:14:49.182Z,1.33
2023-03-19T22:17:20.381Z,2.33
2023-03-19T22:19:51.424Z,4.30
2023-03-19T22:22:22.333Z,3.73
2023-03-19T22:24:55.459Z,4.63
2023-03-19T22:27:26.315Z,2.87
2023-03-19T22:29:57.786Z,1.90
2023-03-19T22:32:28.749Z,2.20
2023-03-19T22:34:59.916Z,2.60
2023-03-19T22:37:31.812Z,5.07
2023-03-19T22:40:02.804Z,3.50
2023-03-19T22:42:33.893Z,3.90
2023-03-19T22:45:05.240Z,1.23
2023-03-19T22:47:39.354Z,3.57
2023-03-19T22:50:19.580Z,3.37
2023-03-19T22:52:50.569Z,2.43
2023-03-19T22:55:21.998Z,4.40
2023-03-19T22:57:53.223Z,2.20
2023-03-19T23:00:26.237Z,2.97
2023-03-19T23:03:00.478Z,3.57
2023-03-19T23:05:35.381Z,1.73
2023-03-19T23:08:07.519Z,4.70
2023-03-19T23:10:39.857Z,3.40
2023-03-19T23:13:11.361Z,3.60
2023-03-19T23:15:42.930Z,2.10
2023-03-19T23:18:19.443Z,1.47
2023-03-19T23:20:51.147Z,3.77
2023-03-19T23:23:22.165Z,2.33
2023-03-19T23:25:53.329Z,1.03
2023-03-19T23:28:26.078Z,1.73
2023-03-19T23:30:57.108Z,2.30
2023-03-19T23:33:29.957Z,1.50
2023-03-19T23:36:01.028Z,2.10
2023-03-19T23:38:32.077Z,1.23
2023-03-19T23:41:03.264Z,1.10
2023-03-19T23:43:35.684Z,1.80
2023-03-19T23:46:08.318Z,1.53
2023-03-19T23:48:40.159Z,1.80
2023-03-19T23:51:14.596Z,4.20
2023-03-19T23:53:46.168Z,3.60
2023-03-19T23:56:18.316Z,2.07
2023-03-19T23:58:50.712Z,1.60
